Time;durP1;ratioP1;P1;durP2;ratioP2;P2;SDS_P1;SDS_P2;PMS_P1;PMS_P2;Temp;Humidity;BMP_temperature;BMP_pressure;BME280_temperature;BME280_humidity;BME280_pressure;Samples;Min_cycle;Max_cycle;Signal;HPM_P1;HPM_P2
2021/03/23 00:02:10;;;;;;;5.77;2.20;;;;;;;;;;5045681;28;20657;-69
2021/03/23 00:04:36;;;;;;;4.73;2.20;;;;;;;;;;5033853;28;20263;-69
2021/03/23 00:07:01;;;;;;;4.03;2.40;;;;;;;;;;5042752;28;20585;-70
2021/03/23 00:09:26;;;;;;;5.63;2.40;;;;;;;;;;5034900;28;20221;-69
2021/03/23 00:11:52;;;;;;;6.37;2.47;;;;;;;;;;5040710;28;20658;-70
2021/03/23 00:14:17;;;;;;;9.20;3.07;;;;;;;;;;5032003;28;20264;-70
2021/03/23 00:16:45;;;;;;;7.13;2.87;;;;;;;;;;5041810;28;20289;-70
2021/03/23 00:19:12;;;;;;;4.37;2.53;;;;;;;;;;5030445;28;20299;-70
2021/03/23 00:21:38;;;;;;;5.30;2.40;;;;;;;;;;5040589;28;20277;-70
2021/03/23 00:24:04;;;;;;;5.53;2.63;;;;;;;;;;5030246;28;20331;-70
2021/03/23 00:26:30;;;;;;;7.30;2.87;;;;;;;;;;5042584;28;20195;-70
2021/03/23 00:28:56;;;;;;;3.70;2.50;;;;;;;;;;5046346;28;20276;-70
2021/03/23 00:31:26;;;;;;;4.83;2.63;;;;;;;;;;5027163;28;20225;-70
2021/03/23 00:33:52;;;;;;;4.70;2.57;;;;;;;;;;5041283;28;20540;-70
2021/03/23 00:36:21;;;;;;;7.87;3.00;;;;;;;;;;5037829;28;20200;-70
2021/03/23 00:38:46;;;;;;;5.80;2.83;;;;;;;;;;5039677;28;20201;-70
2021/03/23 00:41:12;;;;;;;5.57;2.63;;;;;;;;;;5034248;28;20193;-70
2021/03/23 00:43:39;;;;;;;6.07;3.30;;;;;;;;;;5039670;28;20648;-70
2021/03/23 00:46:05;;;;;;;5.70;3.17;;;;;;;;;;5024408;28;20618;-70
2021/03/23 00:48:31;;;;;;;9.03;3.10;;;;;;;;;;5038823;28;20213;-70
2021/03/23 00:50:56;;;;;;;6.00;3.27;;;;;;;;;;5034345;28;20211;-70
2021/03/23 00:53:22;;;;;;;4.07;2.50;;;;;;;;;;5039781;28;20603;-70
2021/03/23 00:55:47;;;;;;;4.20;2.40;;;;;;;;;;5031446;28;20200;-70
2021/03/23 00:58:12;;;;;;;6.07;2.97;;;;;;;;;;5036258;28;20197;-70
2021/03/23 01:00:38;;;;;;;8.80;2.83;;;;;;;;;;5030753;28;20312;-70
2021/03/23 01:03:03;;;;;;;7.43;3.20;;;;;;;;;;5039481;28;20200;-70
2021/03/23 01:05:31;;;;;;;7.43;2.57;;;;;;;;;;5031600;28;20263;-70
2021/03/23 01:07:57;;;;;;;5.50;3.13;;;;;;;;;;5026489;28;20197;-70
2021/03/23 01:10:25;;;;;;;5.60;2.57;;;;;;;;;;5042388;28;20210;-70
2021/03/23 01:12:51;;;;;;;5.63;2.90;;;;;;;;;;5027691;28;20547;-70
2021/03/23 01:15:19;;;;;;;5.83;3.50;;;;;;;;;;5041505;28;20256;-70
2021/03/23 01:17:45;;;;;;;4.77;3.00;;;;;;;;;;5031660;28;20605;-70
2021/03/23 01:20:13;;;;;;;7.60;3.30;;;;;;;;;;5039368;28;20265;-70
2021/03/23 01:22:38;;;;;;;7.27;3.10;;;;;;;;;;5035710;28;20198;-70
2021/03/23 01:25:06;;;;;;;8.07;3.50;;;;;;;;;;5037166;28;20178;-70
2021/03/23 01:27:32;;;;;;;9.57;3.43;;;;;;;;;;5033317;28;20216;-70
2021/03/23 01:29:57;;;;;;;6.37;3.50;;;;;;;;;;5042380;28;20596;-70
2021/03/23 01:32:22;;;;;;;8.83;3.87;;;;;;;;;;5028628;28;20784;-70
2021/03/23 01:34:48;;;;;;;7.17;3.27;;;;;;;;;;5037383;28;20221;-70
2021/03/23 01:37:15;;;;;;;7.30;3.17;;;;;;;;;;5040869;28;20192;-70
2021/03/23 01:39:41;;;;;;;6.40;3.30;;;;;;;;;;5024767;28;20304;-69
2021/03/23 01:42:08;;;;;;;5.93;3.20;;;;;;;;;;5034758;28;20185;-70
2021/03/23 01:44:34;;;;;;;5.47;2.90;;;;;;;;;;5033723;28;20245;-69
2021/03/23 01:46:59;;;;;;;5.97;3.47;;;;;;;;;;5035183;28;20189;-70
2021/03/23 01:49:33;;;;;;;7.37;3.27;;;;;;;;;;5027360;28;20255;-69
2021/03/23 01:52:05;;;;;;;6.43;3.70;;;;;;;;;;5035791;28;20192;-69
2021/03/23 01:54:36;;;;;;;4.97;3.20;;;;;;;;;;5025065;28;20212;-70
2021/03/23 01:57:06;;;;;;;5.43;3.40;;;;;;;;;;5035857;28;20185;-69
2021/03/23 01:59:35;;;;;;;5.73;3.70;;;;;;;;;;5037423;28;20220;-70
2021/03/23 02:02:02;;;;;;;5.57;3.40;;;;;;;;;;5039529;28;20410;-70
2021/03/23 02:04:28;;;;;;;4.27;3.03;;;;;;;;;;5028146;28;20224;-70
2021/03/23 02:06:53;;;;;;;7.90;3.97;;;;;;;;;;5038958;28;20272;-70
2021/03/23 02:09:19;;;;;;;8.33;3.80;;;;;;;;;;5032766;28;20200;-70
2021/03/23 02:11:58;;;;;;;7.10;3.90;;;;;;;;;;5037130;28;20190;-70
2021/03/23 02:14:26;;;;;;;7.30;3.70;;;;;;;;;;5031455;28;20660;-70
2021/03/23 02:16:52;;;;;;;7.60;3.83;;;;;;;;;;5041841;28;20198;-70
2021/03/23 02:19:21;;;;;;;9.67;3.70;;;;;;;;;;5035005;28;20231;-70
2021/03/23 02:21:46;;;;;;;4.90;3.37;;;;;;;;;;5031917;28;20536;-70
2021/03/23 02:24:16;;;;;;;6.57;3.30;;;;;;;;;;5038645;28;20185;-70
2021/03/23 02:26:42;;;;;;;7.63;4.00;;;;;;;;;;5027798;28;20842;-69
2021/03/23 02:29:17;;;;;;;5.43;3.57;;;;;;;;;;5042574;28;20189;-70
2021/03/23 02:31:49;;;;;;;5.90;3.87;;;;;;;;;;5033683;28;20233;-70
2021/03/23 02:34:18;;;;;;;8.87;4.00;;;;;;;;;;5041967;28;20236;-70
2021/03/23 02:36:45;;;;;;;8.97;4.30;;;;;;;;;;5030742;28;20200;-70
2021/03/23 02:39:14;;;;;;;6.60;3.83;;;;;;;;;;5032612;28;20641;-70
2021/03/23 02:41:40;;;;;;;8.13;4.40;;;;;;;;;;5032060;28;20676;-69
2021/03/23 02:44:05;;;;;;;6.20;4.30;;;;;;;;;;5043352;28;20201;-70
2021/03/23 02:46:31;;;;;;;11.30;5.03;;;;;;;;;;5033477;28;20228;-69
2021/03/23 02:48:57;;;;;;;8.27;4.60;;;;;;;;;;5045356;28;20270;-70
2021/03/23 02:51:23;;;;;;;10.80;5.50;;;;;;;;;;5030113;28;20201;-70
2021/03/23 02:53:49;;;;;;;10.30;5.23;;;;;;;;;;5035728;28;20201;-70
2021/03/23 02:56:15;;;;;;;7.63;4.63;;;;;;;;;;5033726;28;20204;-70
2021/03/23 02:58:41;;;;;;;9.37;5.03;;;;;;;;;;5033292;28;20204;-70
2021/03/23 03:01:07;;;;;;;10.67;5.53;;;;;;;;;;5038018;28;20637;-70
2021/03/23 03:03:33;;;;;;;8.67;5.00;;;;;;;;;;5030842;28;20209;-70
2021/03/23 03:05:58;;;;;;;11.67;6.00;;;;;;;;;;5042566;28;20509;-70
2021/03/23 03:08:24;;;;;;;7.87;5.00;;;;;;;;;;5030994;28;20276;-70
2021/03/23 03:10:52;;;;;;;11.10;5.40;;;;;;;;;;5038922;28;22424;-70
2021/03/23 03:13:21;;;;;;;10.10;5.20;;;;;;;;;;5028959;28;20189;-69
2021/03/23 03:15:48;;;;;;;13.10;6.20;;;;;;;;;;5042236;28;21037;-70
2021/03/23 03:18:14;;;;;;;10.83;5.90;;;;;;;;;;5029974;28;20556;-69
2021/03/23 03:20:39;;;;;;;13.57;6.83;;;;;;;;;;5042407;28;20185;-70
2021/03/23 03:23:05;;;;;;;11.23;6.77;;;;;;;;;;5031448;28;20196;-70
2021/03/23 03:25:30;;;;;;;10.13;6.57;;;;;;;;;;5034333;28;20193;-70
2021/03/23 03:27:55;;;;;;;10.80;7.27;;;;;;;;;;5032504;28;20647;-70
2021/03/23 03:30:30;;;;;;;12.67;7.80;;;;;;;;;;5033901;28;20214;-70
2021/03/23 03:32:58;;;;;;;12.77;7.00;;;;;;;;;;5039805;28;20189;-70
2021/03/23 03:35:27;;;;;;;15.93;7.57;;;;;;;;;;5032156;28;20194;-70
2021/03/23 03:37:52;;;;;;;13.57;7.97;;;;;;;;;;5037625;28;20589;-70
2021/03/23 03:40:22;;;;;;;11.20;7.93;;;;;;;;;;5037126;28;20270;-69
2021/03/23 03:42:47;;;;;;;11.73;7.47;;;;;;;;;;5039004;28;20580;-70
2021/03/23 03:45:13;;;;;;;14.27;7.33;;;;;;;;;;5033838;28;20316;-70
2021/03/23 03:47:39;;;;;;;14.00;8.37;;;;;;;;;;5038967;28;20232;-70
2021/03/23 03:50:05;;;;;;;13.07;8.27;;;;;;;;;;5034146;28;20210;-70
2021/03/23 03:52:30;;;;;;;13.93;8.47;;;;;;;;;;5038609;28;20189;-69
2021/03/23 03:54:56;;;;;;;14.70;9.13;;;;;;;;;;5037171;28;20531;-69
2021/03/23 03:57:21;;;;;;;15.67;9.80;;;;;;;;;;5037382;28;20255;-70
2021/03/23 03:59:46;;;;;;;16.30;9.57;;;;;;;;;;5023025;28;21046;-70
2021/03/23 04:02:12;;;;;;;15.30;9.27;;;;;;;;;;5036526;28;20194;-69
2021/03/23 04:04:37;;;;;;;15.20;10.20;;;;;;;;;;5043038;28;20224;-69
2021/03/23 04:07:03;;;;;;;16.67;9.73;;;;;;;;;;5028964;28;20240;-70
2021/03/23 04:09:28;;;;;;;16.63;10.13;;;;;;;;;;5033206;28;20556;-69
2021/03/23 04:11:54;;;;;;;18.30;11.03;;;;;;;;;;5033328;28;20227;-70
2021/03/23 04:14:19;;;;;;;16.43;10.07;;;;;;;;;;5036704;28;20689;-68
2021/03/23 04:16:45;;;;;;;19.47;10.20;;;;;;;;;;5033154;28;20591;-68
2021/03/23 04:19:10;;;;;;;18.87;10.93;;;;;;;;;;5042542;28;20186;-68
2021/03/23 04:21:35;;;;;;;18.00;10.20;;;;;;;;;;5031669;28;20201;-68
2021/03/23 04:24:01;;;;;;;20.43;10.80;;;;;;;;;;5043713;28;20246;-68
2021/03/23 04:26:26;;;;;;;17.77;10.83;;;;;;;;;;5035226;28;20185;-68
2021/03/23 04:28:52;;;;;;;19.23;11.20;;;;;;;;;;5043619;28;20642;-68
2021/03/23 04:31:37;;;;;;;19.13;11.07;;;;;;;;;;5032878;28;20205;-70
2021/03/23 04:34:04;;;;;;;19.80;10.97;;;;;;;;;;5040254;28;20193;-68
2021/03/23 04:36:29;;;;;;;18.40;10.73;;;;;;;;;;5033098;28;21662;-68
2021/03/23 04:38:54;;;;;;;21.13;11.43;;;;;;;;;;5041227;28;20182;-69
2021/03/23 04:41:20;;;;;;;20.70;12.37;;;;;;;;;;5039514;28;20193;-68
2021/03/23 04:43:49;;;;;;;19.57;11.47;;;;;;;;;;5027446;28;20197;-68
2021/03/23 04:46:19;;;;;;;23.87;12.23;;;;;;;;;;5044142;28;20208;-68
2021/03/23 04:48:44;;;;;;;19.63;11.67;;;;;;;;;;5030409;28;20282;-68
2021/03/23 04:51:11;;;;;;;21.40;12.80;;;;;;;;;;5037903;28;20241;-69
2021/03/23 04:53:39;;;;;;;21.87;13.30;;;;;;;;;;5031788;28;20228;-69
2021/03/23 04:56:06;;;;;;;23.77;13.87;;;;;;;;;;5038114;28;20701;-68
2021/03/23 04:58:32;;;;;;;25.73;13.57;;;;;;;;;;5035909;28;20194;-69
2021/03/23 05:00:59;;;;;;;23.37;13.70;;;;;;;;;;5038880;28;20177;-69
2021/03/23 05:03:31;;;;;;;26.70;15.53;;;;;;;;;;5029567;28;20542;-70
2021/03/23 05:06:04;;;;;;;23.47;14.03;;;;;;;;;;5037305;28;20667;-70
2021/03/23 05:08:29;;;;;;;27.43;15.03;;;;;;;;;;5029890;28;20194;-69
2021/03/23 05:10:54;;;;;;;26.93;15.37;;;;;;;;;;5041193;28;20596;-68
2021/03/23 05:13:20;;;;;;;26.70;14.53;;;;;;;;;;5023393;28;20258;-68
2021/03/23 05:15:45;;;;;;;27.00;15.30;;;;;;;;;;5039870;28;20189;-70
2021/03/23 05:18:12;;;;;;;25.77;14.97;;;;;;;;;;5042540;28;20584;-70
2021/03/23 05:20:37;;;;;;;29.57;14.97;;;;;;;;;;5035607;28;20191;-69
2021/03/23 05:23:02;;;;;;;26.43;14.83;;;;;;;;;;5043574;28;20205;-68
2021/03/23 05:25:28;;;;;;;30.13;16.40;;;;;;;;;;5032011;28;20204;-69
2021/03/23 05:27:53;;;;;;;31.90;17.03;;;;;;;;;;5036633;28;20644;-68
2021/03/23 05:30:20;;;;;;;31.80;16.87;;;;;;;;;;5027629;28;20217;-69
2021/03/23 05:32:45;;;;;;;30.97;17.03;;;;;;;;;;5037442;28;20194;-68
2021/03/23 05:35:11;;;;;;;33.27;18.10;;;;;;;;;;5031499;28;20247;-70
2021/03/23 05:37:37;;;;;;;34.60;18.53;;;;;;;;;;5041194;28;20320;-69
2021/03/23 05:40:05;;;;;;;34.50;18.67;;;;;;;;;;5025448;28;20280;-69
2021/03/23 05:42:41;;;;;;;33.57;19.53;;;;;;;;;;5037851;28;20193;-69
2021/03/23 05:45:17;;;;;;;37.47;19.03;;;;;;;;;;5028726;28;20304;-69
2021/03/23 05:47:44;;;;;;;35.90;19.73;;;;;;;;;;5041647;28;20196;-69
2021/03/23 05:50:32;;;;;;;34.97;20.10;;;;;;;;;;5029307;28;20206;-69
2021/03/23 05:53:10;;;;;;;31.10;16.70;;;;;;;;;;5036779;28;20185;-69
2021/03/23 05:55:40;;;;;;;38.53;19.47;;;;;;;;;;4329340;28;10000817;-69
2021/03/23 05:58:29;;;;;;;37.77;19.33;;;;;;;;;;5033545;28;20177;-71
2021/03/23 06:01:05;;;;;;;32.87;19.17;;;;;;;;;;5017862;28;20296;-69
2021/03/23 06:03:39;;;;;;;33.73;18.63;;;;;;;;;;5030507;28;20232;-69
2021/03/23 06:06:44;;;;;;;36.07;19.20;;;;;;;;;;5017776;28;20586;-69
2021/03/23 06:09:11;;;;;;;34.90;19.10;;;;;;;;;;5028319;28;20202;-69
2021/03/23 06:11:40;;;;;;;33.27;18.13;;;;;;;;;;5020567;28;20654;-69
2021/03/23 06:14:24;;;;;;;33.93;19.03;;;;;;;;;;5030990;28;20595;-70
2021/03/23 06:16:58;;;;;;;37.77;18.30;;;;;;;;;;5023887;28;20181;-70
2021/03/23 06:19:34;;;;;;;37.87;20.27;;;;;;;;;;5036784;28;20610;-70
2021/03/23 06:22:19;;;;;;;34.40;19.10;;;;;;;;;;5028166;28;20235;-70
2021/03/23 06:25:03;;;;;;;48.47;20.60;;;;;;;;;;5035289;28;20525;-70
2021/03/23 06:27:38;;;;;;;35.80;19.00;;;;;;;;;;5026751;28;20280;-70
2021/03/23 06:30:49;;;;;;;37.63;19.80;;;;;;;;;;5038216;28;20213;-71
2021/03/23 06:33:19;;;;;;;36.83;19.97;;;;;;;;;;5025016;28;20212;-70
2021/03/23 06:35:52;;;;;;;35.30;19.77;;;;;;;;;;5035897;28;20288;-70
2021/03/23 06:38:28;;;;;;;35.50;20.23;;;;;;;;;;5025964;28;20185;-70
2021/03/23 06:41:16;;;;;;;35.33;20.17;;;;;;;;;;5036138;28;20517;-70
2021/03/23 06:43:45;;;;;;;35.00;18.73;;;;;;;;;;5018228;28;20430;-70
2021/03/23 06:46:31;;;;;;;35.07;19.27;;;;;;;;;;5032557;28;20300;-70
2021/03/23 06:49:24;;;;;;;35.97;20.97;;;;;;;;;;5028805;28;20216;-70
2021/03/23 06:51:53;;;;;;;34.93;20.03;;;;;;;;;;5037770;28;20190;-69
2021/03/23 06:54:22;;;;;;;32.10;18.77;;;;;;;;;;5030106;28;20284;-69
2021/03/23 06:57:04;;;;;;;42.07;23.03;;;;;;;;;;5036970;28;20209;-69
2021/03/23 06:59:32;;;;;;;38.10;22.10;;;;;;;;;;5029755;28;20197;-70
2021/03/23 07:02:02;;;;;;;36.60;20.93;;;;;;;;;;5030752;28;20182;-70
2021/03/23 07:04:34;;;;;;;40.60;21.20;;;;;;;;;;5025271;28;20678;-70
2021/03/23 07:07:20;;;;;;;41.53;21.17;;;;;;;;;;5034269;28;20186;-70
2021/03/23 07:09:52;;;;;;;36.97;21.03;;;;;;;;;;5031131;28;20229;-70
2021/03/23 07:12:34;;;;;;;35.60;19.67;;;;;;;;;;5033394;28;20247;-70
2021/03/23 07:15:10;;;;;;;39.33;21.17;;;;;;;;;;5029197;28;20196;-70
2021/03/23 07:17:41;;;;;;;36.20;21.13;;;;;;;;;;5033480;28;20199;-70
2021/03/23 07:20:16;;;;;;;39.70;21.53;;;;;;;;;;5026229;28;21311;-69
2021/03/23 07:22:49;;;;;;;39.90;21.63;;;;;;;;;;5039665;28;20189;-70
2021/03/23 07:25:33;;;;;;;37.97;22.07;;;;;;;;;;5027802;28;21783;-69
2021/03/23 07:28:35;;;;;;;41.10;22.33;;;;;;;;;;5035641;28;20676;-69
2021/03/23 07:31:14;;;;;;;38.70;22.80;;;;;;;;;;5026268;28;20259;-70
2021/03/23 07:34:04;;;;;;;39.83;22.77;;;;;;;;;;5036333;28;20224;-70
2021/03/23 07:36:34;;;;;;;44.00;24.07;;;;;;;;;;5024086;28;20574;-70
2021/03/23 07:39:02;;;;;;;44.03;23.13;;;;;;;;;;5035525;28;20197;-70
2021/03/23 07:41:43;;;;;;;45.20;24.77;;;;;;;;;;5023936;28;20194;-70
2021/03/23 07:44:36;;;;;;;39.87;23.43;;;;;;;;;;5033739;28;20233;-70
2021/03/23 07:47:14;;;;;;;43.87;24.50;;;;;;;;;;5027156;28;20219;-70
2021/03/23 07:49:49;;;;;;;49.43;24.27;;;;;;;;;;5033317;28;20197;-70
2021/03/23 07:52:22;;;;;;;45.53;25.27;;;;;;;;;;5027995;28;20196;-70
2021/03/23 07:54:48;;;;;;;44.60;25.00;;;;;;;;;;5041603;28;20228;-70
2021/03/23 07:57:39;;;;;;;45.80;25.30;;;;;;;;;;5026422;28;20239;-70
2021/03/23 08:00:19;;;;;;;40.67;24.50;;;;;;;;;;5036557;28;20196;-70
2021/03/23 08:03:23;;;;;;;45.33;25.40;;;;;;;;;;5024141;28;20229;-70
2021/03/23 08:06:05;;;;;;;41.07;24.33;;;;;;;;;;5038203;28;20201;-70
2021/03/23 08:09:06;;;;;;;48.00;26.25;;;;;;;;;;5034256;28;20188;-70
2021/03/23 08:12:01;;;;;;;45.80;26.83;;;;;;;;;;5050177;28;20255;-70
2021/03/23 08:14:50;;;;;;;47.20;25.73;;;;;;;;;;5029108;28;20564;-70
2021/03/23 08:17:52;;;;;;;48.13;26.70;;;;;;;;;;5032727;28;20705;-70
2021/03/23 08:20:37;;;;;;;50.03;28.17;;;;;;;;;;5025722;28;20463;-69
2021/03/23 08:23:39;;;;;;;57.30;28.50;;;;;;;;;;5021643;28;20178;-68
2021/03/23 08:26:55;;;;;;;53.40;28.03;;;;;;;;;;5036432;28;20196;-68
2021/03/23 08:29:34;;;;;;;53.85;28.77;;;;;;;;;;5030750;28;20193;-70
2021/03/23 08:32:12;;;;;;;57.92;28.00;;;;;;;;;;5035837;28;20331;-70
2021/03/23 08:34:46;;;;;;;52.17;27.43;;;;;;;;;;5030631;28;20250;-70
2021/03/23 08:37:44;;;;;;;50.00;29.38;;;;;;;;;;5041872;28;20173;-70
2021/03/23 08:40:30;;;;;;;48.45;27.35;;;;;;;;;;5032886;28;20182;-71
2021/03/23 08:42:56;;;;;;;55.50;28.47;;;;;;;;;;5042419;28;20189;-71
2021/03/23 08:45:35;;;;;;;55.95;29.65;;;;;;;;;;5030423;28;20245;-70
2021/03/23 08:48:02;;;;;;;53.23;29.87;;;;;;;;;;5038389;28;20246;-69
2021/03/23 08:50:35;;;;;;;54.63;29.35;;;;;;;;;;5032827;28;20291;-70
2021/03/23 08:53:05;;;;;;;57.00;28.43;;;;;;;;;;5037445;28;20178;-69
2021/03/23 08:55:30;;;;;;;50.08;29.70;;;;;;;;;;5028661;28;20185;-71
2021/03/23 08:57:58;;;;;;;59.65;29.00;;;;;;;;;;5039062;28;20770;-70
2021/03/23 09:00:35;;;;;;;52.95;28.45;;;;;;;;;;5028537;28;20669;-70
2021/03/23 09:03:07;;;;;;;58.00;29.45;;;;;;;;;;5034944;28;20193;-70
2021/03/23 09:05:50;;;;;;;54.83;29.30;;;;;;;;;;5029143;28;20189;-69
2021/03/23 09:08:44;;;;;;;62.58;32.08;;;;;;;;;;5035999;28;20196;-69
2021/03/23 09:11:13;;;;;;;51.95;29.30;;;;;;;;;;5028150;28;20217;-69
2021/03/23 09:13:39;;;;;;;58.13;31.25;;;;;;;;;;5032756;28;20193;-69
2021/03/23 09:16:10;;;;;;;56.58;31.42;;;;;;;;;;5028159;28;20181;-69
2021/03/23 09:18:41;;;;;;;53.78;29.27;;;;;;;;;;5042293;28;20189;-69
2021/03/23 09:21:09;;;;;;;53.40;31.38;;;;;;;;;;5026263;28;20174;-70
2021/03/23 09:23:37;;;;;;;56.28;32.55;;;;;;;;;;5043573;28;20186;-69
2021/03/23 09:26:24;;;;;;;59.85;30.80;;;;;;;;;;5034986;28;20182;-69
2021/03/23 09:28:53;;;;;;;56.92;30.90;;;;;;;;;;5039340;28;20195;-70
2021/03/23 09:31:24;;;;;;;51.20;29.85;;;;;;;;;;5038680;28;20209;-69
2021/03/23 09:33:55;;;;;;;58.58;31.63;;;;;;;;;;5034732;28;20193;-70
2021/03/23 09:36:34;;;;;;;64.28;31.48;;;;;;;;;;5042699;28;20190;-70
2021/03/23 09:39:30;;;;;;;60.63;33.50;;;;;;;;;;5034288;28;20200;-70
2021/03/23 09:42:22;;;;;;;68.90;35.22;;;;;;;;;;5035745;28;20186;-70
2021/03/23 09:45:03;;;;;;;59.78;35.50;;;;;;;;;;5039917;28;20244;-70
2021/03/23 09:48:01;;;;;;;70.30;37.88;;;;;;;;;;5024603;28;20605;-70
2021/03/23 09:50:30;;;;;;;63.25;36.85;;;;;;;;;;5033652;28;20569;-70
2021/03/23 09:53:24;;;;;;;63.70;35.85;;;;;;;;;;5022795;28;20268;-71
2021/03/23 09:55:50;;;;;;;69.75;38.60;;;;;;;;;;5034949;28;20182;-71
2021/03/23 09:58:27;;;;;;;75.10;39.55;;;;;;;;;;5023755;28;21099;-71
2021/03/23 10:01:07;;;;;;;69.88;37.58;;;;;;;;;;5035803;28;20185;-70
2021/03/23 10:03:36;;;;;;;71.78;36.97;;;;;;;;;;5025142;28;20551;-71
2021/03/23 10:06:05;;;;;;;68.93;39.15;;;;;;;;;;5039227;28;20192;-70
2021/03/23 10:08:33;;;;;;;69.22;38.55;;;;;;;;;;5022655;28;20189;-71
2021/03/23 10:11:14;;;;;;;67.68;36.80;;;;;;;;;;5031100;28;20708;-71
2021/03/23 10:13:55;;;;;;;62.15;34.95;;;;;;;;;;5029195;28;20551;-70
2021/03/23 10:16:26;;;;;;;63.92;34.40;;;;;;;;;;5029334;28;20519;-72
2021/03/23 10:18:52;;;;;;;63.30;33.67;;;;;;;;;;5029568;28;20188;-70
2021/03/23 10:21:24;;;;;;;65.22;36.13;;;;;;;;;;5023344;28;20190;-71
2021/03/23 10:23:55;;;;;;;71.38;36.40;;;;;;;;;;5032078;28;20212;-70
2021/03/23 10:26:23;;;;;;;72.18;35.58;;;;;;;;;;5028450;28;20200;-70
2021/03/23 10:28:50;;;;;;;69.70;35.85;;;;;;;;;;5034822;28;20193;-71
2021/03/23 10:31:31;;;;;;;66.32;35.17;;;;;;;;;;5025226;28;20206;-70
2021/03/23 10:34:12;;;;;;;56.28;31.55;;;;;;;;;;5035370;28;20680;-70
2021/03/23 10:36:55;;;;;;;66.72;35.33;;;;;;;;;;5031049;28;20212;-70
2021/03/23 10:39:30;;;;;;;74.65;36.75;;;;;;;;;;5033383;28;20682;-70
2021/03/23 10:41:55;;;;;;;67.82;34.70;;;;;;;;;;5026645;28;20193;-70
2021/03/23 10:44:28;;;;;;;68.57;34.67;;;;;;;;;;5036531;28;20221;-70
2021/03/23 10:46:54;;;;;;;64.07;34.38;;;;;;;;;;5033268;28;20201;-70
2021/03/23 10:49:20;;;;;;;63.45;34.40;;;;;;;;;;5036127;28;20839;-69
2021/03/23 10:51:48;;;;;;;70.25;34.05;;;;;;;;;;5024699;28;20217;-70
2021/03/23 10:54:14;;;;;;;67.75;34.63;;;;;;;;;;5031669;28;21232;-70
2021/03/23 10:56:48;;;;;;;63.95;33.75;;;;;;;;;;5026125;28;20182;-70
2021/03/23 10:59:27;;;;;;;69.90;35.28;;;;;;;;;;5033694;28;20659;-70
2021/03/23 11:02:14;;;;;;;68.95;34.90;;;;;;;;;;5023824;28;20193;-70
2021/03/23 11:05:15;;;;;;;72.35;39.65;;;;;;;;;;5032614;28;20208;-70
2021/03/23 11:07:59;;;;;;;67.82;35.38;;;;;;;;;;5016267;28;20649;-70
2021/03/23 11:10:31;;;;;;;62.75;32.78;;;;;;;;;;5032464;28;20281;-70
2021/03/23 11:12:58;;;;;;;61.13;33.45;;;;;;;;;;5028163;28;20197;-70
2021/03/23 11:15:23;;;;;;;62.65;31.25;;;;;;;;;;5030644;28;20209;-70
2021/03/23 11:17:51;;;;;;;59.13;32.35;;;;;;;;;;5023231;28;20255;-70
2021/03/23 11:20:25;;;;;;;63.55;31.10;;;;;;;;;;5031527;28;20535;-70
2021/03/23 11:22:53;;;;;;;67.68;31.92;;;;;;;;;;5027283;28;20275;-70
2021/03/23 11:25:22;;;;;;;68.32;31.52;;;;;;;;;;5030286;28;20231;-70
2021/03/23 11:27:48;;;;;;;70.57;33.08;;;;;;;;;;5028229;28;21725;-71
2021/03/23 11:30:14;;;;;;;72.78;33.78;;;;;;;;;;5035610;28;20216;-71
2021/03/23 11:32:40;;;;;;;68.25;33.55;;;;;;;;;;5036464;28;20273;-70
2021/03/23 11:35:07;;;;;;;72.05;34.03;;;;;;;;;;5024897;28;20308;-71
2021/03/23 11:37:32;;;;;;;65.97;34.00;;;;;;;;;;5035677;28;20189;-70
2021/03/23 11:39:57;;;;;;;71.07;34.72;;;;;;;;;;5027851;28;20263;-70
2021/03/23 11:42:31;;;;;;;74.30;36.00;;;;;;;;;;5038342;28;20196;-70
2021/03/23 11:45:02;;;;;;;70.93;34.42;;;;;;;;;;5026028;28;20450;-70
2021/03/23 11:47:43;;;;;;;65.03;34.30;;;;;;;;;;5039861;28;20217;-71
2021/03/23 11:50:21;;;;;;;72.43;34.25;;;;;;;;;;5024753;28;20208;-70
2021/03/23 11:52:48;;;;;;;74.90;35.43;;;;;;;;;;5039109;28;20791;-70
2021/03/23 11:55:38;;;;;;;80.28;35.55;;;;;;;;;;5035467;28;20189;-70
2021/03/23 11:58:05;;;;;;;74.90;35.30;;;;;;;;;;5039587;28;20607;-70
2021/03/23 12:00:31;;;;;;;69.78;33.97;;;;;;;;;;5026091;28;20196;-71
2021/03/23 12:03:00;;;;;;;70.67;35.00;;;;;;;;;;5035050;28;20182;-70
2021/03/23 12:05:28;;;;;;;71.28;34.90;;;;;;;;;;5030753;28;20198;-70
2021/03/23 12:08:13;;;;;;;69.55;35.33;;;;;;;;;;5037039;28;20198;-70
2021/03/23 12:11:20;;;;;;;76.20;36.80;;;;;;;;;;5025778;28;20263;-70
2021/03/23 12:14:15;;;;;;;78.57;35.80;;;;;;;;;;5037220;28;20197;-71
2021/03/23 12:17:02;;;;;;;72.90;34.60;;;;;;;;;;5032476;28;20214;-70
2021/03/23 12:19:38;;;;;;;77.88;37.38;;;;;;;;;;5038431;28;20192;-70
2021/03/23 12:22:04;;;;;;;72.93;34.17;;;;;;;;;;5031548;28;20194;-71
2021/03/23 12:24:30;;;;;;;69.13;35.42;;;;;;;;;;5038525;28;20667;-70
2021/03/23 12:26:55;;;;;;;75.10;34.72;;;;;;;;;;5032833;28;20216;-70
2021/03/23 12:29:21;;;;;;;69.88;35.10;;;;;;;;;;5040121;28;20197;-70
2021/03/23 12:31:47;;;;;;;71.75;35.13;;;;;;;;;;5033232;28;20287;-70
2021/03/23 12:34:13;;;;;;;69.43;34.53;;;;;;;;;;5036772;28;20244;-70
2021/03/23 12:36:41;;;;;;;66.80;33.28;;;;;;;;;;5030615;28;25599;-70
2021/03/23 12:39:08;;;;;;;67.13;34.43;;;;;;;;;;5033721;28;20196;-71
2021/03/23 12:41:35;;;;;;;66.45;34.47;;;;;;;;;;5028349;28;20181;-70
2021/03/23 12:44:02;;;;;;;70.78;35.75;;;;;;;;;;5038043;28;20201;-71
2021/03/23 12:46:29;;;;;;;69.43;34.15;;;;;;;;;;5034619;28;20264;-70
2021/03/23 12:48:54;;;;;;;60.22;32.92;;;;;;;;;;5030397;28;20209;-71
2021/03/23 12:51:38;;;;;;;70.15;32.85;;;;;;;;;;5037054;28;20274;-70
2021/03/23 12:54:05;;;;;;;71.00;35.28;;;;;;;;;;5032468;28;20181;-70
2021/03/23 12:56:31;;;;;;;68.82;34.15;;;;;;;;;;5037550;28;20186;-70
2021/03/23 12:58:59;;;;;;;64.53;33.22;;;;;;;;;;5028816;28;20202;-70
2021/03/23 13:01:25;;;;;;;67.43;34.03;;;;;;;;;;5038704;28;20287;-70
2021/03/23 13:03:50;;;;;;;68.60;34.50;;;;;;;;;;5034564;28;20226;-71
2021/03/23 13:06:22;;;;;;;69.28;35.00;;;;;;;;;;5039189;28;20664;-70
2021/03/23 13:08:48;;;;;;;67.40;34.05;;;;;;;;;;5030619;28;20304;-70
2021/03/23 13:11:18;;;;;;;67.80;33.80;;;;;;;;;;5034756;28;20293;-70
2021/03/23 13:14:04;;;;;;;61.22;34.17;;;;;;;;;;5029878;28;20557;-70
2021/03/23 13:16:32;;;;;;;61.08;33.17;;;;;;;;;;5035113;28;20625;-71
2021/03/23 13:18:58;;;;;;;60.85;31.30;;;;;;;;;;5029238;28;20194;-70
2021/03/23 13:21:33;;;;;;;66.65;35.10;;;;;;;;;;5032745;28;20271;-71
2021/03/23 13:24:01;;;;;;;66.18;35.45;;;;;;;;;;5028659;28;20196;-70
2021/03/23 13:26:28;;;;;;;64.05;34.33;;;;;;;;;;5032248;28;20268;-71
2021/03/23 13:29:06;;;;;;;71.60;34.67;;;;;;;;;;5027739;28;20194;-70
2021/03/23 13:31:36;;;;;;;60.17;33.97;;;;;;;;;;5034131;28;20208;-70
2021/03/23 13:34:01;;;;;;;62.28;33.78;;;;;;;;;;5041176;28;20188;-70
2021/03/23 13:36:30;;;;;;;62.88;33.95;;;;;;;;;;5035595;28;20189;-70
2021/03/23 13:38:56;;;;;;;63.67;34.42;;;;;;;;;;5040132;28;20189;-70
2021/03/23 13:41:23;;;;;;;64.18;33.30;;;;;;;;;;4325526;28;10000882;-71
2021/03/23 13:43:54;;;;;;;63.55;33.88;;;;;;;;;;5030248;28;20581;-70
2021/03/23 13:46:32;;;;;;;63.72;35.65;;;;;;;;;;5023410;28;20220;-71
2021/03/23 13:48:59;;;;;;;61.03;34.60;;;;;;;;;;5034444;28;20186;-71
2021/03/23 13:51:24;;;;;;;60.65;32.97;;;;;;;;;;5028854;28;20344;-70
2021/03/23 13:53:49;;;;;;;60.80;33.90;;;;;;;;;;5035414;28;20269;-71
2021/03/23 13:56:15;;;;;;;59.28;33.67;;;;;;;;;;5028797;28;20190;-71
2021/03/23 13:58:42;;;;;;;59.08;33.53;;;;;;;;;;5034361;28;20221;-71
2021/03/23 14:01:12;;;;;;;61.55;33.72;;;;;;;;;;5025630;28;20275;-71
2021/03/23 14:03:37;;;;;;;59.00;32.13;;;;;;;;;;5035168;28;20590;-70
2021/03/23 14:06:03;;;;;;;57.10;32.75;;;;;;;;;;5023569;28;20223;-71
2021/03/23 14:08:37;;;;;;;61.30;33.60;;;;;;;;;;5033436;28;20178;-71
2021/03/23 14:11:03;;;;;;;59.28;34.72;;;;;;;;;;5035473;28;20577;-70
2021/03/23 14:13:29;;;;;;;52.03;31.35;;;;;;;;;;5031161;28;20185;-71
2021/03/23 14:15:54;;;;;;;55.83;33.13;;;;;;;;;;5034915;28;20524;-70
2021/03/23 14:18:20;;;;;;;61.08;34.03;;;;;;;;;;5025949;28;20194;-70
2021/03/23 14:20:47;;;;;;;54.10;32.45;;;;;;;;;;5038506;28;20668;-70
2021/03/23 14:23:19;;;;;;;59.25;32.45;;;;;;;;;;5021805;28;20286;-70
2021/03/23 14:25:47;;;;;;;58.50;32.95;;;;;;;;;;5031759;28;20208;-70
2021/03/23 14:28:23;;;;;;;58.25;32.63;;;;;;;;;;5024829;28;20315;-70
2021/03/23 14:30:50;;;;;;;59.20;34.05;;;;;;;;;;5030493;28;20261;-70
2021/03/23 14:33:16;;;;;;;54.28;32.00;;;;;;;;;;5028201;28;20177;-70
2021/03/23 14:35:41;;;;;;;58.72;32.40;;;;;;;;;;5031410;28;20170;-70
2021/03/23 14:38:12;;;;;;;50.70;30.00;;;;;;;;;;5023529;28;20260;-70
2021/03/23 14:40:38;;;;;;;55.33;32.17;;;;;;;;;;5030692;28;20178;-70
2021/03/23 14:43:07;;;;;;;54.45;31.40;;;;;;;;;;5022241;28;20633;-71
2021/03/23 14:45:34;;;;;;;54.88;32.22;;;;;;;;;;5039182;28;20238;-71
2021/03/23 14:47:59;;;;;;;51.35;31.48;;;;;;;;;;5024123;28;20186;-71
2021/03/23 14:50:25;;;;;;;50.13;31.95;;;;;;;;;;5030408;28;20197;-71